Time;durP1;ratioP1;P1;durP2;ratioP2;P2;SDS_P1;SDS_P2;PMS_P1;PMS_P2;Temp;Humidity;BMP_temperature;BMP_pressure;BME280_temperature;BME280_humidity;BME280_pressure;Samples;Min_cycle;Max_cycle;Signal;HPM_P1;HPM_P2
2022/03/17 00:01:19;;;;;;;12.55;4.60;;;11.60;99.90;;;;;;5075519;28;20477;-77
2022/03/17 00:03:45;;;;;;;10.10;3.90;;;11.60;99.90;;;;;;5090034;28;20024;-77
2022/03/17 00:06:13;;;;;;;9.85;4.45;;;11.50;99.90;;;;;;5074845;28;20078;-77
2022/03/17 00:08:39;;;;;;;17.75;5.53;;;11.50;99.90;;;;;;5087140;28;20031;-77
2022/03/17 00:11:05;;;;;;;13.07;4.80;;;11.50;99.90;;;;;;5089440;28;20034;-77
2022/03/17 00:13:31;;;;;;;8.38;4.60;;;11.50;99.90;;;;;;5088107;28;20031;-77
2022/03/17 00:15:57;;;;;;;13.07;4.75;;;11.50;99.90;;;;;;5087276;28;20103;-77
2022/03/17 00:18:23;;;;;;;7.90;3.47;;;11.50;99.90;;;;;;5091035;28;20551;-77
2022/03/17 00:20:49;;;;;;;13.13;3.80;;;11.50;99.90;;;;;;5089240;28;20059;-77
2022/03/17 00:23:14;;;;;;;14.00;4.07;;;11.50;99.90;;;;;;5089478;28;20056;-77
2022/03/17 00:25:41;;;;;;;10.00;4.72;;;11.50;99.90;;;;;;5089430;28;20565;-77
2022/03/17 00:28:06;;;;;;;10.30;3.95;;;11.50;99.90;;;;;;5088009;28;20043;-77
2022/03/17 00:30:32;;;;;;;11.95;3.90;;;11.40;99.90;;;;;;5089758;28;20397;-77
2022/03/17 00:32:58;;;;;;;10.07;3.97;;;11.50;99.90;;;;;;5081171;28;20122;-77
2022/03/17 00:35:36;;;;;;;7.32;4.00;;;11.50;99.90;;;;;;5083867;28;20059;-77
2022/03/17 00:38:02;;;;;;;7.60;3.58;;;11.50;99.90;;;;;;5088008;28;20044;-77
2022/03/17 00:40:29;;;;;;;36.28;3.65;;;11.50;99.90;;;;;;5088380;28;20016;-77
2022/03/17 00:42:56;;;;;;;9.02;3.80;;;11.40;99.90;;;;;;5085730;28;20025;-77
2022/03/17 00:45:23;;;;;;;10.65;3.40;;;11.50;99.90;;;;;;5085214;28;20028;-77
2022/03/17 00:47:49;;;;;;;8.05;3.90;;;11.50;99.90;;;;;;5087478;28;20031;-77
2022/03/17 00:50:15;;;;;;;10.90;3.60;;;11.60;99.90;;;;;;5084996;28;20028;-77
2022/03/17 00:52:40;;;;;;;9.30;4.63;;;11.60;99.90;;;;;;5091949;28;20076;-79
2022/03/17 00:55:06;;;;;;;9.73;4.57;;;11.60;99.90;;;;;;5092381;28;20020;-79
2022/03/17 00:57:34;;;;;;;8.57;4.28;;;11.60;99.90;;;;;;5093999;28;20596;-79
2022/03/17 01:00:00;;;;;;;9.40;4.38;;;11.60;99.90;;;;;;5091679;28;20032;-79
2022/03/17 01:02:25;;;;;;;13.63;5.55;;;11.60;99.90;;;;;;5081221;28;20087;-79
2022/03/17 01:04:51;;;;;;;16.45;6.53;;;11.60;99.90;;;;;;5083709;28;20528;-79
2022/03/17 01:07:16;;;;;;;14.82;6.65;;;11.60;99.90;;;;;;5092565;28;20077;-79
2022/03/17 01:09:42;;;;;;;16.95;8.13;;;11.50;99.90;;;;;;5092750;28;20024;-79
2022/03/17 01:12:08;;;;;;;14.40;6.90;;;11.50;99.90;;;;;;5093774;28;20028;-79
2022/03/17 01:14:34;;;;;;;14.35;6.90;;;11.50;99.90;;;;;;5091883;28;20473;-79
2022/03/17 01:17:00;;;;;;;13.70;7.07;;;11.50;99.90;;;;;;5084297;28;20066;-79
2022/03/17 01:19:26;;;;;;;10.90;6.00;;;11.50;99.90;;;;;;5071114;28;20550;-79
2022/03/17 01:21:52;;;;;;;12.82;5.68;;;11.50;99.90;;;;;;5074283;28;20492;-79
2022/03/17 01:24:18;;;;;;;11.90;6.10;;;11.40;99.90;;;;;;5093831;28;20050;-79
2022/03/17 01:26:45;;;;;;;10.25;5.65;;;11.40;99.90;;;;;;5091718;28;20028;-79
2022/03/17 01:29:10;;;;;;;11.55;6.05;;;11.50;99.90;;;;;;5090612;28;20031;-79
2022/03/17 01:31:36;;;;;;;14.10;5.95;;;11.50;99.90;;;;;;5090714;28;20490;-79
2022/03/17 01:34:03;;;;;;;12.38;5.93;;;11.50;99.90;;;;;;5085567;28;20067;-80
2022/03/17 01:36:30;;;;;;;14.50;6.45;;;11.50;99.90;;;;;;5093541;28;20054;-79
2022/03/17 01:38:56;;;;;;;11.15;4.95;;;11.50;99.90;;;;;;5079911;28;20524;-79
2022/03/17 01:44:26;;;;;;;9.25;3.97;;;11.40;99.90;;;;;;5069228;28;20043;-78
2022/03/17 01:49:40;;;;;;;8.60;3.60;;;11.40;99.90;;;;;;5092104;28;20030;-78
2022/03/17 01:52:06;;;;;;;10.45;4.03;;;11.40;99.90;;;;;;5073133;28;20071;-78
2022/03/17 01:54:33;;;;;;;5.68;4.07;;;11.40;99.90;;;;;;5074321;28;20174;-78
2022/03/17 01:56:59;;;;;;;5.90;3.28;;;11.40;99.90;;;;;;5082336;28;20078;-78
2022/03/17 01:59:27;;;;;;;4.70;3.05;;;11.40;99.90;;;;;;5073912;28;20024;-78
2022/03/17 02:01:54;;;;;;;5.22;2.80;;;11.40;99.90;;;;;;5083877;28;20486;-78
2022/03/17 02:04:20;;;;;;;7.28;3.58;;;11.40;99.90;;;;;;5080563;28;20020;-78
2022/03/17 02:06:47;;;;;;;6.75;3.55;;;11.40;99.90;;;;;;5075722;28;20059;-78
2022/03/17 02:09:13;;;;;;;6.70;3.13;;;11.40;99.90;;;;;;5073502;28;20115;-78
2022/03/17 02:14:25;;;;;;;4.63;2.97;;;11.40;99.90;;;;;;5087094;28;20071;-78
2022/03/17 02:16:51;;;;;;;4.07;2.83;;;11.40;99.90;;;;;;5079329;28;20094;-78
2022/03/17 02:19:18;;;;;;;5.13;2.90;;;11.40;99.90;;;;;;5073341;28;20020;-78
2022/03/17 02:21:48;;;;;;;5.03;2.67;;;11.30;99.90;;;;;;5072967;28;20031;-78
2022/03/17 02:27:00;;;;;;;4.10;2.58;;;11.30;99.90;;;;;;5073509;28;20426;-78
2022/03/17 02:29:26;;;;;;;4.90;2.78;;;11.40;99.90;;;;;;5072520;28;20016;-78
2022/03/17 02:31:52;;;;;;;4.57;2.85;;;11.30;99.90;;;;;;5072860;28;20490;-78
2022/03/17 02:34:19;;;;;;;5.28;3.33;;;11.30;99.90;;;;;;5079540;28;20099;-79
2022/03/17 02:36:49;;;;;;;5.57;3.08;;;11.30;99.90;;;;;;5085533;28;20020;-79
2022/03/17 02:39:16;;;;;;;4.35;2.03;;;11.30;99.90;;;;;;5074065;28;20103;-79
2022/03/17 02:41:42;;;;;;;4.53;2.28;;;11.30;99.90;;;;;;5079510;28;20020;-79
2022/03/17 02:44:09;;;;;;;3.72;2.25;;;11.30;99.90;;;;;;5075883;28;20127;-79
2022/03/17 02:46:34;;;;;;;3.33;2.55;;;11.30;99.90;;;;;;5072804;28;20040;-79
2022/03/17 02:49:00;;;;;;;2.95;2.00;;;11.30;99.90;;;;;;5081981;28;20120;-79
2022/03/17 02:51:26;;;;;;;3.50;2.25;;;11.30;99.90;;;;;;5082637;28;20048;-79
2022/03/17 02:53:52;;;;;;;5.63;2.83;;;11.30;99.90;;;;;;5082308;28;20032;-79
2022/03/17 02:56:17;;;;;;;3.65;2.22;;;11.30;99.90;;;;;;5074370;28;20553;-79
2022/03/17 02:58:43;;;;;;;3.22;2.35;;;11.40;99.90;;;;;;5087803;28;20042;-78
2022/03/17 03:01:09;;;;;;;3.38;2.03;;;11.40;99.90;;;;;;5081239;28;20482;-78
2022/03/17 03:03:35;;;;;;;3.08;1.88;;;11.30;99.90;;;;;;5073737;28;20395;-78
2022/03/17 03:06:01;;;;;;;2.58;1.90;;;11.30;99.90;;;;;;5079355;28;20489;-78
2022/03/17 03:08:27;;;;;;;2.67;1.88;;;11.30;99.90;;;;;;5072402;28;20024;-78
2022/03/17 03:10:53;;;;;;;3.15;1.88;;;11.40;99.90;;;;;;5082291;28;20677;-78
2022/03/17 03:13:20;;;;;;;2.17;1.70;;;11.40;99.90;;;;;;5078816;28;20505;-78
2022/03/17 03:15:46;;;;;;;1.55;1.45;;;11.40;99.90;;;;;;5073400;28;20021;-78
2022/03/17 03:18:12;;;;;;;1.80;1.33;;;11.40;99.90;;;;;;5071765;28;20565;-78
2022/03/17 03:20:38;;;;;;;4.45;1.90;;;11.40;99.90;;;;;;5087806;28;20012;-78
2022/03/17 03:23:04;;;;;;;2.13;1.67;;;11.40;99.90;;;;;;5075436;28;20646;-78
2022/03/17 03:25:30;;;;;;;2.17;1.92;;;11.40;99.90;;;;;;5071901;28;20079;-79
2022/03/17 03:27:56;;;;;;;2.45;2.25;;;11.40;99.90;;;;;;5076551;28;20509;-79
2022/03/17 03:30:22;;;;;;;1.90;1.42;;;11.40;99.90;;;;;;5076505;28;20032;-78
2022/03/17 03:32:49;;;;;;;1.92;1.73;;;11.30;99.90;;;;;;5070759;28;20028;-78
2022/03/17 03:38:01;;;;;;;1.55;1.42;;;11.40;99.90;;;;;;5071991;28;20027;-79
2022/03/17 03:40:27;;;;;;;1.67;1.58;;;11.40;99.90;;;;;;5088773;28;20032;-79
2022/03/17 03:42:52;;;;;;;2.22;1.27;;;11.40;99.90;;;;;;5083067;28;20088;-79
2022/03/17 03:45:19;;;;;;;1.17;0.95;;;11.30;99.90;;;;;;5070944;28;20047;-78
2022/03/17 03:47:45;;;;;;;1.50;1.30;;;11.40;99.90;;;;;;5077374;28;20032;-78
2022/03/17 03:50:10;;;;;;;1.40;1.30;;;11.40;99.90;;;;;;5086281;28;20023;-78
2022/03/17 03:52:36;;;;;;;1.33;1.23;;;11.40;99.90;;;;;;5070457;28;20084;-78
2022/03/17 03:55:02;;;;;;;3.40;1.42;;;11.40;99.90;;;;;;5071812;28;20056;-78
2022/03/17 03:57:27;;;;;;;1.48;1.38;;;11.40;99.90;;;;;;5081772;28;20035;-78
2022/03/17 03:59:53;;;;;;;1.80;1.17;;;11.40;99.90;;;;;;5079448;28;20021;-78
2022/03/17 04:02:19;;;;;;;1.45;1.20;;;11.40;99.90;;;;;;5073830;28;20063;-79
2022/03/17 04:04:45;;;;;;;1.30;1.20;;;11.40;99.90;;;;;;5071240;28;20497;-78
2022/03/17 04:07:11;;;;;;;1.33;1.23;;;11.40;99.90;;;;;;5081456;28;20028;-78
2022/03/17 04:09:41;;;;;;;1.50;1.40;;;11.40;99.90;;;;;;5082797;28;20020;-78
2022/03/17 04:12:09;;;;;;;1.88;1.40;;;11.40;99.90;;;;;;5079192;28;20020;-78
2022/03/17 04:14:35;;;;;;;1.65;1.30;;;11.40;99.90;;;;;;5071890;28;20024;-78
2022/03/17 04:17:01;;;;;;;5.85;1.95;;;11.40;99.90;;;;;;5081536;28;20474;-78
2022/03/17 04:19:27;;;;;;;3.15;1.38;;;11.40;99.90;;;;;;5071480;28;20446;-80
2022/03/17 04:21:53;;;;;;;2.70;1.45;;;11.40;99.90;;;;;;5074284;28;20044;-79
2022/03/17 04:24:20;;;;;;;2.60;1.58;;;11.40;99.90;;;;;;5087014;28;20032;-79
2022/03/17 04:26:46;;;;;;;3.50;1.73;;;11.40;99.90;;;;;;5081815;28;20080;-79
2022/03/17 04:29:14;;;;;;;3.30;1.80;;;11.40;99.90;;;;;;5077375;28;20073;-79
2022/03/17 04:31:41;;;;;;;1.67;1.58;;;11.50;99.90;;;;;;5073689;28;20063;-79
2022/03/17 04:34:08;;;;;;;1.75;1.63;;;11.50;99.90;;;;;;5074744;28;20055;-79
2022/03/17 04:36:34;;;;;;;2.33;1.92;;;11.50;99.90;;;;;;5085045;28;20017;-79
2022/03/17 04:39:02;;;;;;;3.10;1.85;;;11.50;99.90;;;;;;5075182;28;20029;-79
2022/03/17 04:41:28;;;;;;;2.65;1.90;;;11.60;99.90;;;;;;5088079;28;20035;-79
2022/03/17 04:43:54;;;;;;;2.75;1.73;;;11.60;99.90;;;;;;5089929;28;20020;-79
2022/03/17 04:46:21;;;;;;;2.65;1.67;;;11.60;99.90;;;;;;5073588;28;20037;-79
2022/03/17 04:48:47;;;;;;;3.10;1.80;;;11.60;99.90;;;;;;5075099;28;20031;-80
2022/03/17 04:51:13;;;;;;;3.97;1.92;;;11.60;99.90;;;;;;5085394;28;20029;-85
2022/03/17 04:53:39;;;;;;;3.55;2.10;;;11.60;99.90;;;;;;5085770;28;20055;-85
2022/03/17 04:56:09;;;;;;;2.03;1.88;;;11.60;99.90;;;;;;5084429;28;20028;-85
2022/03/17 04:58:42;;;;;;;2.53;1.80;;;11.70;99.90;;;;;;5075162;28;20117;-85
2022/03/17 05:01:10;;;;;;;4.72;2.10;;;11.70;99.90;;;;;;5089831;28;20505;-85
2022/03/17 05:03:37;;;;;;;2.95;2.05;;;11.70;99.90;;;;;;5089420;28;20036;-85
2022/03/17 05:06:03;;;;;;;3.08;1.75;;;11.70;99.90;;;;;;5091564;28;20027;-85
2022/03/17 05:08:29;;;;;;;7.50;2.70;;;11.70;99.90;;;;;;5075173;28;20030;-84
2022/03/17 05:10:55;;;;;;;4.68;2.28;;;11.70;99.90;;;;;;5084689;28;20113;-78
2022/03/17 05:13:23;;;;;;;3.90;1.80;;;11.70;99.90;;;;;;5073083;28;20054;-79
2022/03/17 05:15:51;;;;;;;2.40;2.15;;;11.70;99.90;;;;;;5074799;28;20017;-79
2022/03/17 05:18:18;;;;;;;3.25;2.08;;;11.60;99.90;;;;;;5074059;28;20074;-79
2022/03/17 05:20:44;;;;;;;3.85;2.00;;;11.70;99.90;;;;;;5091162;28;20016;-79
2022/03/17 05:23:12;;;;;;;7.57;2.72;;;11.70;99.90;;;;;;5087541;28;20040;-79
2022/03/17 05:25:39;;;;;;;3.50;2.25;;;11.70;99.90;;;;;;5073897;28;20034;-79
2022/03/17 05:28:10;;;;;;;4.05;2.20;;;11.70;99.90;;;;;;5090073;28;20020;-78
2022/03/17 05:30:37;;;;;;;7.07;2.63;;;11.70;99.90;;;;;;5088801;28;20529;-79
2022/03/17 05:33:04;;;;;;;5.97;2.72;;;11.70;99.90;;;;;;5080218;28;20024;-78
2022/03/17 05:35:30;;;;;;;4.25;3.00;;;11.70;99.90;;;;;;5088686;28;20024;-79
2022/03/17 05:37:58;;;;;;;4.25;2.05;;;11.70;99.90;;;;;;5079143;28;20024;-78
2022/03/17 05:40:25;;;;;;;4.72;2.55;;;11.70;99.90;;;;;;5075902;28;20047;-78
2022/03/17 05:42:53;;;;;;;3.50;2.60;;;11.70;99.90;;;;;;5083226;28;20095;-78
2022/03/17 05:45:21;;;;;;;4.53;2.78;;;11.70;99.90;;;;;;5073773;28;20064;-78
2022/03/17 05:47:51;;;;;;;4.38;2.50;;;11.80;99.90;;;;;;5073970;28;20524;-78
2022/03/17 05:50:27;;;;;;;5.28;2.80;;;11.80;99.90;;;;;;5085616;28;20051;-78
2022/03/17 05:52:53;;;;;;;4.13;2.25;;;11.70;99.90;;;;;;5072395;28;20051;-78
2022/03/17 05:55:21;;;;;;;4.88;2.60;;;11.70;99.90;;;;;;5072459;28;20028;-78
2022/03/17 05:57:48;;;;;;;4.05;2.28;;;11.70;99.90;;;;;;5076631;28;20023;-79
2022/03/17 06:00:17;;;;;;;6.43;3.08;;;11.70;99.90;;;;;;5089436;28;20028;-79
2022/03/17 06:02:43;;;;;;;6.30;3.22;;;11.70;99.90;;;;;;5078498;28;20040;-78
2022/03/17 06:05:09;;;;;;;5.32;3.45;;;11.60;99.90;;;;;;5078698;28;20025;-78
2022/03/17 06:07:46;;;;;;;6.68;2.83;;;11.60;99.90;;;;;;5080507;28;20046;-79
2022/03/17 06:10:16;;;;;;;4.97;2.95;;;11.70;99.90;;;;;;5079207;28;20036;-78
2022/03/17 06:12:44;;;;;;;6.78;3.35;;;11.60;99.90;;;;;;5088173;28;20060;-79
2022/03/17 06:15:11;;;;;;;5.20;3.03;;;11.60;99.90;;;;;;5080586;28;20035;-79
2022/03/17 06:17:40;;;;;;;9.88;3.25;;;11.60;99.90;;;;;;5073907;28;20023;-79
2022/03/17 06:20:09;;;;;;;5.78;4.30;;;11.60;99.90;;;;;;5083331;28;20024;-79
2022/03/17 06:22:37;;;;;;;9.27;3.22;;;11.60;99.90;;;;;;5082786;28;20021;-78
2022/03/17 06:25:02;;;;;;;5.03;2.90;;;11.50;99.90;;;;;;5081786;28;20032;-78
2022/03/17 06:27:28;;;;;;;4.47;3.08;;;11.50;99.90;;;;;;5083356;28;20033;-78
2022/03/17 06:29:54;;;;;;;11.10;3.72;;;11.50;99.90;;;;;;5082735;28;20013;-78
2022/03/17 06:32:19;;;;;;;4.03;2.92;;;11.60;99.90;;;;;;5073096;28;20525;-79
2022/03/17 06:34:45;;;;;;;8.23;3.97;;;11.60;99.90;;;;;;5074269;28;20548;-78
2022/03/17 06:37:11;;;;;;;9.57;3.47;;;11.50;99.90;;;;;;5079472;28;20028;-79
2022/03/17 06:39:36;;;;;;;6.72;4.28;;;11.50;99.90;;;;;;5087500;28;20020;-78
2022/03/17 06:42:02;;;;;;;8.00;3.50;;;11.50;99.90;;;;;;5071324;28;20107;-78
2022/03/17 06:44:28;;;;;;;7.40;3.95;;;11.50;99.90;;;;;;5073542;28;20027;-78
2022/03/17 06:46:54;;;;;;;7.00;4.07;;;11.60;99.90;;;;;;5071968;28;20078;-79
2022/03/17 06:49:19;;;;;;;5.63;3.38;;;11.50;99.90;;;;;;5079084;28;20102;-78
2022/03/17 06:51:45;;;;;;;8.75;3.58;;;11.50;99.90;;;;;;5077558;28;20037;-79
2022/03/17 06:54:11;;;;;;;4.97;3.67;;;11.50;99.90;;;;;;5081398;28;20115;-79
2022/03/17 06:56:36;;;;;;;11.30;4.50;;;11.50;99.90;;;;;;5078774;28;20409;-78
2022/03/17 06:59:02;;;;;;;4.97;3.67;;;11.40;99.90;;;;;;5087507;28;20024;-78
2022/03/17 07:01:28;;;;;;;6.80;3.65;;;11.50;99.90;;;;;;5081213;28;20402;-79
2022/03/17 07:03:53;;;;;;;8.60;4.30;;;11.40;99.90;;;;;;5072900;28;20107;-78
2022/03/17 07:06:20;;;;;;;5.45;3.67;;;11.50;99.90;;;;;;5081606;28;20067;-78
2022/03/17 07:08:46;;;;;;;7.97;4.32;;;11.50;99.90;;;;;;5072414;28;20563;-79
2022/03/17 07:11:12;;;;;;;12.57;4.88;;;11.40;99.90;;;;;;5072630;28;20028;-79
2022/03/17 07:13:37;;;;;;;9.30;5.45;;;11.40;99.90;;;;;;5072174;28;20024;-78
2022/03/17 07:16:03;;;;;;;8.63;4.50;;;11.40;99.90;;;;;;5087016;28;20532;-78
2022/03/17 07:18:29;;;;;;;7.10;4.43;;;11.40;99.90;;;;;;5087075;28;20111;-79
2022/03/17 07:20:57;;;;;;;12.38;5.35;;;11.50;99.90;;;;;;5072152;28;20454;-79
2022/03/17 07:23:23;;;;;;;9.95;5.03;;;11.50;99.90;;;;;;5086696;28;20024;-79
2022/03/17 07:25:49;;;;;;;9.20;4.82;;;11.50;99.90;;;;;;5076579;28;20063;-79
2022/03/17 07:28:16;;;;;;;8.25;4.90;;;11.50;99.90;;;;;;5088953;28;20508;-79
2022/03/17 07:30:42;;;;;;;8.07;4.93;;;11.50;99.90;;;;;;5077244;28;20334;-79
2022/03/17 07:33:07;;;;;;;11.93;6.60;;;11.60;99.90;;;;;;5082307;28;20494;-79
2022/03/17 07:35:33;;;;;;;13.20;6.40;;;11.60;99.90;;;;;;5071932;28;20440;-79
2022/03/17 07:37:59;;;;;;;12.38;6.07;;;11.60;99.90;;;;;;5081912;28;20064;-79
2022/03/17 07:40:26;;;;;;;11.43;6.45;;;11.60;99.90;;;;;;5082128;28;20031;-79
2022/03/17 07:42:52;;;;;;;10.75;6.07;;;11.70;99.90;;;;;;5072029;28;20035;-79
2022/03/17 07:45:18;;;;;;;13.27;6.95;;;11.70;99.90;;;;;;5071544;28;20028;-78
2022/03/17 07:47:48;;;;;;;12.30;5.72;;;11.70;99.90;;;;;;5078654;28;20619;-78
2022/03/17 07:50:15;;;;;;;11.38;6.28;;;11.70;99.90;;;;;;5086271;28;20532;-79
2022/03/17 07:52:40;;;;;;;11.73;6.38;;;11.80;99.90;;;;;;5080869;28;20145;-79
2022/03/17 07:55:07;;;;;;;14.98;6.75;;;11.80;99.90;;;;;;5077465;28;20060;-79
2022/03/17 07:57:35;;;;;;;13.85;6.22;;;11.80;99.90;;;;;;5084704;28;20197;-79
2022/03/17 08:00:01;;;;;;;10.57;5.68;;;11.80;99.90;;;;;;5080281;28;20513;-79
2022/03/17 08:02:27;;;;;;;10.45;5.32;;;11.90;99.90;;;;;;5082510;28;20021;-79
2022/03/17 08:04:53;;;;;;;9.68;5.28;;;11.90;99.90;;;;;;5071197;28;20013;-79
2022/03/17 08:07:19;;;;;;;9.70;4.80;;;12.00;99.90;;;;;;5071222;28;20063;-79
2022/03/17 08:09:45;;;;;;;9.70;5.40;;;12.00;99.90;;;;;;5081537;28;20048;-79
2022/03/17 08:12:11;;;;;;;8.55;5.53;;;12.00;99.90;;;;;;5069785;28;20521;-79
2022/03/17 08:14:37;;;;;;;7.07;4.97;;;12.00;99.90;;;;;;5077470;28;20020;-79
2022/03/17 08:17:04;;;;;;;13.13;5.95;;;12.10;99.90;;;;;;5086331;28;20035;-79
2022/03/17 08:19:31;;;;;;;9.75;5.53;;;12.10;99.90;;;;;;5080427;28;20032;-79
2022/03/17 08:21:58;;;;;;;10.20;5.55;;;12.10;99.90;;;;;;5071701;28;20021;-78
2022/03/17 08:24:24;;;;;;;10.68;5.35;;;12.10;99.90;;;;;;5071600;28;20020;-79
2022/03/17 08:26:49;;;;;;;12.57;5.88;;;12.20;99.90;;;;;;5077993;28;20032;-79
2022/03/17 08:29:15;;;;;;;10.88;5.40;;;12.20;99.90;;;;;;5074401;28;20494;-79
2022/03/17 08:31:42;;;;;;;9.20;5.80;;;12.20;99.90;;;;;;5070678;28;20035;-79
2022/03/17 08:34:08;;;;;;;10.30;5.63;;;12.30;99.90;;;;;;5084594;28;20024;-79
2022/03/17 08:36:34;;;;;;;12.52;7.03;;;12.30;99.90;;;;;;5080307;28;20077;-79
2022/03/17 08:38:59;;;;;;;13.77;6.63;;;12.40;99.90;;;;;;5079751;28;20103;-78
2022/03/17 08:41:25;;;;;;;10.35;6.45;;;12.30;99.90;;;;;;5073248;28;20596;-79
2022/03/17 08:43:54;;;;;;;13.63;6.35;;;12.30;99.90;;;;;;5071510;28;20468;-79
2022/03/17 08:49:20;;;;;;;11.85;6.22;;;12.50;99.90;;;;;;5074026;28;20023;-79
2022/03/17 08:51:51;;;;;;;13.77;6.47;;;12.50;99.90;;;;;;5088468;28;20044;-79
2022/03/17 08:54:24;;;;;;;11.73;6.18;;;12.50;99.90;;;;;;5086029;28;20049;-79
2022/03/17 08:56:51;;;;;;;11.65;6.47;;;12.60;99.90;;;;;;5069564;28;20020;-79
2022/03/17 08:59:17;;;;;;;8.90;5.57;;;12.60;99.90;;;;;;5071324;28;20016;-79
2022/03/17 09:01:43;;;;;;;9.95;6.07;;;12.60;99.90;;;;;;5069219;28;20033;-79
2022/03/17 09:04:11;;;;;;;10.43;5.95;;;12.70;99.90;;;;;;5071657;28;20024;-79
2022/03/17 09:06:39;;;;;;;10.98;5.78;;;12.70;99.90;;;;;;5080924;28;20024;-79
2022/03/17 09:09:05;;;;;;;11.18;6.47;;;12.80;99.90;;;;;;5071039;28;20021;-79
2022/03/17 09:11:32;;;;;;;8.32;5.15;;;12.80;99.90;;;;;;5081225;28;20024;-79
2022/03/17 09:13:58;;;;;;;14.88;5.90;;;12.80;99.90;;;;;;5083783;28;20031;-79
2022/03/17 09:16:24;;;;;;;9.63;6.63;;;12.80;99.90;;;;;;5081795;28;20024;-79
2022/03/17 09:18:50;;;;;;;10.77;6.57;;;12.80;99.90;;;;;;5075969;28;20093;-79
2022/03/17 09:21:17;;;;;;;10.63;5.90;;;12.90;99.90;;;;;;5074236;28;20537;-79
2022/03/17 09:23:43;;;;;;;12.05;5.90;;;13.00;99.90;;;;;;5090698;28;20028;-79
2022/03/17 09:26:09;;;;;;;9.05;5.65;;;13.00;99.90;;;;;;5089265;28;20021;-79
2022/03/17 09:28:35;;;;;;;13.10;6.25;;;13.10;99.90;;;;;;5082406;28;20031;-79
2022/03/17 09:31:01;;;;;;;11.93;6.07;;;13.10;99.90;;;;;;5083849;28;20047;-79
2022/03/17 09:33:26;;;;;;;10.90;5.88;;;13.20;99.90;;;;;;5073052;28;20100;-79
2022/03/17 09:35:57;;;;;;;13.25;5.57;;;13.20;99.90;;;;;;5082904;28;20073;-79
2022/03/17 09:38:24;;;;;;;14.63;5.43;;;13.20;99.90;;;;;;5077437;28;20372;-79
2022/03/17 09:40:50;;;;;;;9.88;5.65;;;13.20;99.90;;;;;;5080608;28;20091;-79
2022/03/17 09:43:19;;;;;;;10.77;5.88;;;13.20;99.90;;;;;;5082945;28;20028;-79
2022/03/17 09:45:49;;;;;;;12.45;6.05;;;13.30;99.90;;;;;;5073744;28;20093;-79
2022/03/17 09:48:15;;;;;;;10.10;4.93;;;13.30;99.90;;;;;;5073672;28;20028;-79
2022/03/17 09:50:42;;;;;;;9.70;5.95;;;13.30;99.90;;;;;;5090043;28;20026;-79
2022/03/17 09:53:08;;;;;;;10.38;5.55;;;13.40;99.90;;;;;;5085619;28;20049;-79
2022/03/17 09:55:35;;;;;;;8.63;6.25;;;13.40;99.90;;;;;;5082087;28;20077;-79
2022/03/17 09:58:03;;;;;;;9.07;5.78;;;13.50;99.90;;;;;;5073210;28;20029;-79
2022/03/17 10:00:48;;;;;;;8.27;5.25;;;13.50;99.90;;;;;;5073491;28;20036;-79
2022/03/17 10:03:19;;;;;;;11.10;6.00;;;13.60;99.90;;;;;;5083027;28;20031;-79
2022/03/17 10:05:47;;;;;;;19.67;6.45;;;13.70;99.90;;;;;;5083778;28;20035;-79
2022/03/17 10:08:13;;;;;;;12.15;5.90;;;13.80;99.90;;;;;;5084367;28;20107;-79
2022/03/17 10:10:41;;;;;;;15.35;6.18;;;13.80;99.90;;;;;;5081536;28;20132;-79
2022/03/17 10:13:16;;;;;;;15.05;6.25;;;13.90;99.90;;;;;;5082624;28;20071;-79
2022/03/17 10:15:45;;;;;;;10.05;5.32;;;13.90;99.90;;;;;;5074086;28;20092;-79
2022/03/17 10:18:18;;;;;;;11.90;5.32;;;13.80;99.90;;;;;;5090156;28;20077;-79
2022/03/17 10:20:44;;;;;;;15.82;6.63;;;13.70;99.90;;;;;;5082314;28;20020;-79
2022/03/17 10:23:11;;;;;;;12.05;5.47;;;13.60;99.90;;;;;;5085874;28;20021;-79
2022/03/17 10:25:37;;;;;;;8.65;5.53;;;13.50;99.90;;;;;;5088438;28;20020;-80
2022/03/17 10:28:03;;;;;;;13.93;5.78;;;13.50;99.90;;;;;;5091063;28;20024;-80
2022/03/17 10:30:35;;;;;;;12.75;6.00;;;13.50;99.90;;;;;;5091190;28;20020;-80
2022/03/17 10:33:03;;;;;;;;;;;13.60;99.90;;;;;;5085508;28;20021;-79
2022/03/17 10:35:34;;;;;;;11.40;5.22;;;13.70;99.90;;;;;;5089926;28;19912;-79
2022/03/17 10:38:39;;;;;;;9.25;5.10;;;13.80;99.90;;;;;;5090753;28;20035;-80
2022/03/17 10:41:11;;;;;;;9.73;5.85;;;13.90;99.90;;;;;;5096200;28;20085;-79
2022/03/17 10:43:39;;;;;;;10.38;5.85;;;13.90;99.90;;;;;;5092611;28;20118;-79
2022/03/17 10:46:07;;;;;;;9.23;5.25;;;14.00;99.90;;;;;;5073297;28;20029;-79
2022/03/17 10:48:33;;;;;;;13.15;5.80;;;14.10;99.90;;;;;;5086338;28;20027;-79
2022/03/17 10:50:59;;;;;;;10.20;5.55;;;14.20;99.90;;;;;;5087849;28;20032;-79
2022/03/17 10:53:29;;;;;;;14.55;6.85;;;14.20;99.90;;;;;;5090673;28;20394;-79
2022/03/17 10:56:13;;;;;;;17.97;7.57;;;14.10;99.90;;;;;;5088428;28;20028;-80
2022/03/17 10:58:46;;;;;;;13.23;6.32;;;14.10;99.90;;;;;;5088579;28;20257;-79
2022/03/17 11:01:12;;;;;;;14.10;6.38;;;14.00;99.90;;;;;;5078007;28;20032;-80
2022/03/17 11:03:38;;;;;;;10.80;5.82;;;13.90;99.90;;;;;;5086781;28;20032;-79
2022/03/17 11:06:06;;;;;;;12.98;6.68;;;13.80;99.90;;;;;;5090155;28;20032;-79
2022/03/17 11:08:32;;;;;;;10.18;6.30;;;13.80;99.90;;;;;;5083439;28;20070;-79
2022/03/17 11:10:58;;;;;;;15.07;6.78;;;13.70;99.90;;;;;;5087709;28;20028;-80
2022/03/17 11:13:26;;;;;;;10.43;6.28;;;13.70;99.90;;;;;;5091641;28;20378;-83
2022/03/17 11:16:12;;;;;;;15.13;6.80;;;13.70;99.90;;;;;;5081536;28;20047;-83
2022/03/17 11:18:40;;;;;;;14.48;6.97;;;13.80;99.90;;;;;;5090328;28;20016;-83
2022/03/17 11:21:27;;;;;;;15.52;7.38;;;13.80;99.90;;;;;;5090207;28;20020;-83
2022/03/17 11:24:04;;;;;;;18.52;7.88;;;14.00;99.90;;;;;;5090130;28;20122;-82
2022/03/17 11:26:39;;;;;;;13.48;7.30;;;14.00;99.90;;;;;;5090419;28;20153;-83
2022/03/17 11:29:09;;;;;;;17.50;6.72;;;14.10;99.90;;;;;;5090209;28;20548;-83
2022/03/17 11:31:58;;;;;;;21.98;8.02;;;14.20;99.90;;;;;;5091218;28;20016;-82
2022/03/17 11:34:46;;;;;;;17.42;8.93;;;14.30;99.90;;;;;;5078219;28;20489;-82
2022/03/17 11:37:26;;;;;;;18.77;8.70;;;14.20;99.90;;;;;;5084222;28;20024;-83
2022/03/17 11:40:09;;;;;;;13.70;6.97;;;14.30;99.90;;;;;;5095867;28;20127;-82
2022/03/17 11:42:52;;;;;;;12.98;8.13;;;14.40;99.90;;;;;;5093814;28;20574;-82
2022/03/17 11:45:19;;;;;;;11.80;7.05;;;14.40;99.90;;;;;;5087600;28;20024;-82
2022/03/17 11:47:56;;;;;;;15.60;8.75;;;14.30;99.90;;;;;;5089742;28;20020;-82
2022/03/17 11:50:27;;;;;;;13.48;7.68;;;14.30;99.90;;;;;;5090688;28;20535;-82
2022/03/17 11:53:00;;;;;;;13.85;7.53;;;14.30;99.90;;;;;;5089515;28;20576;-82
2022/03/17 11:55:42;;;;;;;12.98;6.88;;;14.30;99.90;;;;;;5090675;28;20051;-82
2022/03/17 11:58:19;;;;;;;16.77;7.45;;;14.20;99.90;;;;;;5082305;28;20051;-82
2022/03/17 12:00:55;;;;;;;15.45;8.73;;;14.20;99.90;;;;;;5089402;28;20024;-82
2022/03/17 12:03:45;;;;;;;16.25;8.45;;;14.20;99.90;;;;;;5083970;28;20027;-82
2022/03/17 12:06:20;;;;;;;14.18;7.30;;;14.20;99.90;;;;;;5079150;28;20110;-82
2022/03/17 12:09:05;;;;;;;14.07;7.63;;;14.20;99.90;;;;;;5089545;28;20027;-82
2022/03/17 12:11:39;;;;;;;10.82;7.50;;;14.20;99.90;;;;;;5089657;28;20039;-82
2022/03/17 12:14:14;;;;;;;14.50;7.75;;;14.20;99.90;;;;;;5089487;28;20026;-82
2022/03/17 12:16:46;;;;;;;11.52;7.40;;;14.20;99.90;;;;;;5090556;28;20069;-82
2022/03/17 12:19:23;;;;;;;9.68;6.70;;;14.20;99.90;;;;;;5083057;28;20045;-82
2022/03/17 12:21:58;;;;;;;13.45;7.38;;;14.20;99.90;;;;;;5089448;28;20027;-82
2022/03/17 12:24:35;;;;;;;15.65;9.38;;;14.20;99.90;;;;;;5082335;28;20029;-83
2022/03/17 12:27:30;;;;;;;12.48;8.32;;;14.20;99.90;;;;;;5070732;28;20029;-83
2022/03/17 12:30:02;;;;;;;10.60;7.70;;;14.30;99.90;;;;;;5088316;28;20050;-82
2022/03/17 12:32:33;;;;;;;25.15;7.90;;;14.40;99.90;;;;;;5089547;28;20032;-82
2022/03/17 12:35:00;;;;;;;11.93;7.70;;;14.60;99.90;;;;;;5074144;28;20028;-82
2022/03/17 12:37:29;;;;;;;14.43;7.93;;;14.70;99.90;;;;;;5090463;28;20016;-82
2022/03/17 12:39:57;;;;;;;12.57;8.30;;;14.70;99.90;;;;;;5096707;28;20030;-82
2022/03/17 12:42:24;;;;;;;13.65;7.47;;;14.80;99.90;;;;;;5095209;28;20024;-82
2022/03/17 12:44:51;;;;;;;11.18;6.97;;;14.90;99.90;;;;;;5089184;28;20024;-82
2022/03/17 12:47:19;;;;;;;14.10;7.78;;;15.00;99.90;;;;;;5091088;28;20035;-82
2022/03/17 12:49:45;;;;;;;19.65;8.38;;;15.10;99.90;;;;;;5098447;28;20062;-82
2022/03/17 12:52:13;;;;;;;12.77;8.02;;;15.10;99.90;;;;;;5093759;28;20083;-82
2022/03/17 12:54:39;;;;;;;14.48;7.93;;;15.10;99.90;;;;;;5092658;28;20024;-82
2022/03/17 12:57:05;;;;;;;11.85;8.32;;;15.20;99.90;;;;;;5090814;28;20031;-82
2022/03/17 12:59:33;;;;;;;11.52;7.55;;;15.20;99.90;;;;;;5085913;28;20032;-82
2022/03/17 13:02:00;;;;;;;10.85;7.45;;;15.30;99.90;;;;;;5091713;28;20020;-82
2022/03/17 13:04:27;;;;;;;14.80;7.78;;;15.30;99.90;;;;;;5094028;28;20028;-82